NKS9710 KDTW-KACY
Flight info
| Callsign | NKS9710 |
|---|---|
| Flight time | 1h 11m |
| Altitude | 39000 |
| Route | PAVYL3 ESSBE CXR REC HAR MXE VCN ACY |
| Aircraft | B737/M-SDE2E3FGHIRWXY/LB1 |
Departure
| Time | 2026-05-04 19:10 |
|---|---|
| Airport | Detroit Metropolitan Wayne County Airport (KDTW) |
Arrival
| Time | 2026-05-04 20:22 |
|---|---|
| Airport | Atlantic City International Airport (KACY) |
| Time | Latitude | Longitude | Altitude | Speed | Heading |
|---|---|---|---|---|---|
| 2026-05-04 18:41 | 42.22225 | -83.35100 | 648 ft | 0 kts | 346° |
| 2026-05-04 18:58 | 42.22218 | -83.35098 | 648 ft | 4 kts | 345° |
| 2026-05-04 18:59 | 42.22194 | -83.35087 | 650 ft | 4 kts | 347° |
| 2026-05-04 18:59 | 42.22172 | -83.35087 | 648 ft | 4 kts | 12° |
| 2026-05-04 18:59 | 42.22147 | -83.35096 | 648 ft | 4 kts | 16° |
| 2026-05-04 18:59 | 42.22123 | -83.35103 | 649 ft | 4 kts | 343° |
| 2026-05-04 19:00 | 42.22116 | -83.35119 | 648 ft | 4 kts | 255° |
| 2026-05-04 19:00 | 42.22115 | -83.35121 | 648 ft | 1 kts | 254° |
| 2026-05-04 19:02 | 42.22098 | -83.35181 | 648 ft | 12 kts | 240° |
| 2026-05-04 19:03 | 42.22028 | -83.35248 | 649 ft | 12 kts | 210° |
| 2026-05-04 19:03 | 42.21954 | -83.35305 | 649 ft | 12 kts | 208° |
| 2026-05-04 19:03 | 42.21875 | -83.35335 | 648 ft | 12 kts | 180° |
| 2026-05-04 19:03 | 42.21824 | -83.35268 | 649 ft | 12 kts | 91° |
| 2026-05-04 19:04 | 42.21827 | -83.35161 | 648 ft | 11 kts | 88° |
| 2026-05-04 19:04 | 42.21830 | -83.35058 | 649 ft | 11 kts | 89° |
| 2026-05-04 19:04 | 42.21832 | -83.34957 | 649 ft | 11 kts | 88° |
| 2026-05-04 19:04 | 42.21834 | -83.34860 | 649 ft | 10 kts | 88° |
| 2026-05-04 19:05 | 42.21837 | -83.34765 | 649 ft | 10 kts | 82° |
| 2026-05-04 19:05 | 42.21836 | -83.34673 | 649 ft | 10 kts | 94° |
| 2026-05-04 19:05 | 42.21838 | -83.34584 | 649 ft | 9 kts | 86° |
| 2026-05-04 19:05 | 42.21860 | -83.34504 | 651 ft | 9 kts | 45° |
| 2026-05-04 19:06 | 42.21918 | -83.34460 | 649 ft | 10 kts | 26° |
| 2026-05-04 19:06 | 42.21978 | -83.34413 | 650 ft | 10 kts | 30° |
| 2026-05-04 19:06 | 42.22037 | -83.34368 | 650 ft | 10 kts | 29° |
| 2026-05-04 19:06 | 42.22095 | -83.34324 | 649 ft | 10 kts | 29° |
| 2026-05-04 19:07 | 42.22155 | -83.34281 | 648 ft | 10 kts | 27° |
| 2026-05-04 19:07 | 42.22216 | -83.34239 | 648 ft | 10 kts | 30° |
| 2026-05-04 19:07 | 42.22277 | -83.34191 | 649 ft | 14 kts | 30° |
| 2026-05-04 19:07 | 42.22367 | -83.34125 | 650 ft | 15 kts | 29° |
| 2026-05-04 19:08 | 42.22455 | -83.34060 | 650 ft | 14 kts | 28° |
| 2026-05-04 19:08 | 42.22511 | -83.34019 | 649 ft | 14 kts | 28° |
| 2026-05-04 19:08 | 42.22592 | -83.33960 | 649 ft | 13 kts | 28° |
| 2026-05-04 19:08 | 42.22679 | -83.33897 | 649 ft | 16 kts | 28° |
| 2026-05-04 19:09 | 42.22783 | -83.33820 | 650 ft | 17 kts | 28° |
| 2026-05-04 19:09 | 42.22849 | -83.33711 | 648 ft | 17 kts | 100° |
| 2026-05-04 19:09 | 42.22759 | -83.33665 | 650 ft | 16 kts | 209° |
| 2026-05-04 19:09 | 42.22511 | -83.33851 | 650 ft | 84 kts | 208° |
| 2026-05-04 19:10 | 42.21774 | -83.34409 | 757 ft | 150 kts | 211° |
| 2026-05-04 19:10 | 42.21127 | -83.34914 | 1231 ft | 167 kts | 210° |
| 2026-05-04 19:10 | 42.19663 | -83.35919 | 2514 ft | 184 kts | 197° |
| 2026-05-04 19:10 | 42.18372 | -83.36262 | 3239 ft | 205 kts | 188° |
| 2026-05-04 19:11 | 42.16879 | -83.36249 | 3802 ft | 222 kts | 181° |
| 2026-05-04 19:11 | 42.15307 | -83.36135 | 4549 ft | 227 kts | 182° |
| 2026-05-04 19:11 | 42.13681 | -83.36026 | 5188 ft | 245 kts | 183° |
| 2026-05-04 19:11 | 42.11923 | -83.35922 | 5922 ft | 259 kts | 184° |
| 2026-05-04 19:12 | 42.10109 | -83.35818 | 6616 ft | 265 kts | 184° |
| 2026-05-04 19:12 | 42.06416 | -83.35572 | 6972 ft | 273 kts | 177° |
| 2026-05-04 19:12 | 42.04628 | -83.34562 | 6996 ft | 288 kts | 149° |
| 2026-05-04 19:13 | 42.03382 | -83.32423 | 6994 ft | 300 kts | 117° |
| 2026-05-04 19:13 | 42.02765 | -83.29726 | 6996 ft | 304 kts | 105° |
| 2026-05-04 19:13 | 42.02391 | -83.26941 | 7002 ft | 304 kts | 103° |
| 2026-05-04 19:13 | 42.02030 | -83.24125 | 6993 ft | 304 kts | 103° |
| 2026-05-04 19:14 | 42.01653 | -83.21341 | 6991 ft | 304 kts | 104° |
| 2026-05-04 19:14 | 42.01339 | -83.18516 | 6971 ft | 307 kts | 92° |
| 2026-05-04 19:14 | 42.01643 | -83.15641 | 7202 ft | 315 kts | 79° |
| 2026-05-04 19:14 | 42.02082 | -83.12749 | 8200 ft | 316 kts | 79° |
| 2026-05-04 19:15 | 42.02508 | -83.09857 | 8777 ft | 319 kts | 78° |
| 2026-05-04 19:15 | 42.03112 | -83.06976 | 9454 ft | 324 kts | 71° |
| 2026-05-04 19:15 | 42.03854 | -83.04102 | 10366 ft | 327 kts | 70° |
| 2026-05-04 19:15 | 42.04646 | -83.01135 | 10811 ft | 349 kts | 70° |
| 2026-05-04 19:16 | 42.05480 | -82.97983 | 11238 ft | 368 kts | 70° |
| 2026-05-04 19:16 | 42.06333 | -82.94706 | 11998 ft | 375 kts | 70° |
| 2026-05-04 19:16 | 42.07192 | -82.91362 | 12867 ft | 380 kts | 71° |
| 2026-05-04 19:16 | 42.08051 | -82.87978 | 13726 ft | 385 kts | 71° |
| 2026-05-04 19:17 | 42.08916 | -82.84553 | 14571 ft | 388 kts | 71° |
| 2026-05-04 19:17 | 42.09783 | -82.81104 | 15437 ft | 392 kts | 71° |
| 2026-05-04 19:17 | 42.10662 | -82.77600 | 16308 ft | 395 kts | 70° |
| 2026-05-04 19:17 | 42.11544 | -82.74078 | 17180 ft | 399 kts | 70° |
| 2026-05-04 19:18 | 42.12436 | -82.70514 | 18027 ft | 404 kts | 70° |
| 2026-05-04 19:18 | 42.13321 | -82.66973 | 18716 ft | 408 kts | 70° |
| 2026-05-04 19:18 | 42.14218 | -82.63265 | 19455 ft | 413 kts | 74° |
| 2026-05-04 19:18 | 42.14526 | -82.59409 | 20146 ft | 418 kts | 91° |
| 2026-05-04 19:19 | 42.14442 | -82.55467 | 20890 ft | 422 kts | 92° |
| 2026-05-04 19:19 | 42.14356 | -82.51477 | 21570 ft | 428 kts | 91° |
| 2026-05-04 19:19 | 42.14308 | -82.47446 | 22241 ft | 433 kts | 90° |
| 2026-05-04 19:19 | 42.14217 | -82.43376 | 22905 ft | 438 kts | 95° |
| 2026-05-04 19:20 | 42.13830 | -82.39292 | 23539 ft | 442 kts | 99° |
| 2026-05-04 19:20 | 42.13286 | -82.35207 | 24135 ft | 445 kts | 101° |
| 2026-05-04 19:20 | 42.12696 | -82.31104 | 24737 ft | 447 kts | 101° |
| 2026-05-04 19:20 | 42.12112 | -82.26986 | 25330 ft | 450 kts | 101° |
| 2026-05-04 19:21 | 42.11544 | -82.22814 | 25896 ft | 453 kts | 100° |
| 2026-05-04 19:21 | 42.10996 | -82.18627 | 26453 ft | 456 kts | 99° |
| 2026-05-04 19:21 | 42.10465 | -82.14468 | 26990 ft | 459 kts | 99° |
| 2026-05-04 19:21 | 42.09919 | -82.10149 | 27549 ft | 462 kts | 99° |
| 2026-05-04 19:22 | 42.09386 | -82.05935 | 28073 ft | 465 kts | 99° |
| 2026-05-04 19:22 | 42.08834 | -82.01591 | 28592 ft | 468 kts | 99° |
| 2026-05-04 19:22 | 42.08288 | -81.97309 | 29083 ft | 471 kts | 99° |
| 2026-05-04 19:22 | 42.07730 | -81.92962 | 29579 ft | 473 kts | 99° |
| 2026-05-04 19:23 | 42.07165 | -81.88572 | 30000 ft | 476 kts | 99° |
| 2026-05-04 19:23 | 42.06595 | -81.84174 | 30360 ft | 479 kts | 100° |
| 2026-05-04 19:23 | 42.05584 | -81.79892 | 30646 ft | 484 kts | 117° |
| 2026-05-04 19:23 | 42.03717 | -81.76144 | 30991 ft | 483 kts | 135° |
| 2026-05-04 19:24 | 42.01262 | -81.73069 | 31362 ft | 482 kts | 141° |
| 2026-05-04 19:24 | 41.98701 | -81.70150 | 31673 ft | 485 kts | 142° |
| 2026-05-04 19:24 | 41.96099 | -81.67233 | 31946 ft | 488 kts | 142° |
| 2026-05-04 19:24 | 41.93483 | -81.64291 | 32289 ft | 490 kts | 142° |
| 2026-05-04 19:25 | 41.90895 | -81.61349 | 32759 ft | 488 kts | 142° |
| 2026-05-04 19:25 | 41.88319 | -81.58392 | 33197 ft | 486 kts | 141° |
| 2026-05-04 19:25 | 41.85753 | -81.55430 | 33608 ft | 486 kts | 141° |
| 2026-05-04 19:25 | 41.83196 | -81.52472 | 33931 ft | 487 kts | 141° |
| 2026-05-04 19:26 | 41.80631 | -81.49504 | 34241 ft | 486 kts | 141° |
| 2026-05-04 19:26 | 41.78073 | -81.46548 | 34590 ft | 486 kts | 141° |
| 2026-05-04 19:26 | 41.75519 | -81.43601 | 34915 ft | 485 kts | 142° |
| 2026-05-04 19:26 | 41.72950 | -81.40643 | 35220 ft | 485 kts | 142° |
| 2026-05-04 19:27 | 41.70399 | -81.37710 | 35504 ft | 485 kts | 142° |
| 2026-05-04 19:27 | 41.67842 | -81.34773 | 35814 ft | 484 kts | 142° |
| 2026-05-04 19:27 | 41.65284 | -81.31837 | 36091 ft | 484 kts | 142° |
| 2026-05-04 19:27 | 41.62732 | -81.28912 | 36381 ft | 483 kts | 142° |
| 2026-05-04 19:28 | 41.60185 | -81.25995 | 36675 ft | 483 kts | 142° |
| 2026-05-04 19:28 | 41.57634 | -81.23076 | 36959 ft | 483 kts | 142° |
| 2026-05-04 19:28 | 41.55091 | -81.20170 | 37230 ft | 482 kts | 142° |
| 2026-05-04 19:28 | 41.52674 | -81.17065 | 37447 ft | 486 kts | 134° |
| 2026-05-04 19:29 | 41.50591 | -81.13504 | 37709 ft | 489 kts | 124° |
| 2026-05-04 19:29 | 41.48914 | -81.09564 | 37956 ft | 489 kts | 118° |
| 2026-05-04 19:29 | 41.47365 | -81.05521 | 38261 ft | 488 kts | 118° |
| 2026-05-04 19:29 | 41.45842 | -81.01466 | 38477 ft | 489 kts | 118° |
| 2026-05-04 19:30 | 41.44320 | -80.97416 | 38633 ft | 489 kts | 118° |
| 2026-05-04 19:30 | 41.42786 | -80.93374 | 38790 ft | 491 kts | 118° |
| 2026-05-04 19:30 | 41.41226 | -80.89308 | 38782 ft | 493 kts | 118° |
| 2026-05-04 19:31 | 41.38080 | -80.81203 | 38804 ft | 491 kts | 118° |
| 2026-05-04 19:31 | 41.34939 | -80.73173 | 38817 ft | 487 kts | 118° |
| 2026-05-04 19:32 | 41.31821 | -80.65225 | 38819 ft | 484 kts | 118° |
| 2026-05-04 19:32 | 41.28700 | -80.57287 | 38821 ft | 482 kts | 119° |
| 2026-05-04 19:33 | 41.25587 | -80.49389 | 38832 ft | 485 kts | 119° |
| 2026-05-04 19:33 | 41.22414 | -80.41360 | 38841 ft | 493 kts | 119° |
| 2026-05-04 19:34 | 41.19223 | -80.33304 | 38834 ft | 494 kts | 119° |
| 2026-05-04 19:34 | 41.16028 | -80.25260 | 38837 ft | 493 kts | 119° |
| 2026-05-04 19:35 | 41.12819 | -80.17202 | 38826 ft | 493 kts | 118° |
| 2026-05-04 19:35 | 41.09624 | -80.09204 | 38840 ft | 492 kts | 118° |
| 2026-05-04 19:36 | 41.06403 | -80.01161 | 38847 ft | 492 kts | 119° |
| 2026-05-04 19:36 | 41.03184 | -79.93148 | 38413 ft | 498 kts | 118° |
| 2026-05-04 19:36 | 41.01553 | -79.89094 | 37850 ft | 496 kts | 118° |
| 2026-05-04 19:37 | 40.99934 | -79.85077 | 37302 ft | 493 kts | 118° |
| 2026-05-04 19:37 | 40.98327 | -79.81093 | 36763 ft | 489 kts | 118° |
| 2026-05-04 19:37 | 40.96732 | -79.77145 | 36262 ft | 485 kts | 118° |
| 2026-05-04 19:37 | 40.95150 | -79.73234 | 35752 ft | 481 kts | 118° |
| 2026-05-04 19:38 | 40.93576 | -79.69350 | 35251 ft | 477 kts | 118° |
| 2026-05-04 19:38 | 40.92032 | -79.65544 | 34780 ft | 473 kts | 118° |
| 2026-05-04 19:38 | 40.90454 | -79.61659 | 34290 ft | 474 kts | 117° |
| 2026-05-04 19:38 | 40.88891 | -79.57817 | 33816 ft | 476 kts | 117° |
| 2026-05-04 19:39 | 40.87339 | -79.54003 | 33285 ft | 480 kts | 118° |
| 2026-05-04 19:39 | 40.85752 | -79.50110 | 32737 ft | 481 kts | 118° |
| 2026-05-04 19:39 | 40.84167 | -79.46227 | 32203 ft | 480 kts | 118° |
| 2026-05-04 19:39 | 40.82581 | -79.42347 | 31690 ft | 480 kts | 118° |
| 2026-05-04 19:40 | 40.80998 | -79.38481 | 31173 ft | 479 kts | 118° |
| 2026-05-04 19:40 | 40.79393 | -79.34564 | 30668 ft | 479 kts | 118° |
| 2026-05-04 19:40 | 40.77806 | -79.30697 | 30182 ft | 479 kts | 118° |
| 2026-05-04 19:40 | 40.76215 | -79.26825 | 29656 ft | 480 kts | 119° |
| 2026-05-04 19:41 | 40.74637 | -79.22991 | 29107 ft | 485 kts | 119° |
| 2026-05-04 19:41 | 40.73018 | -79.19060 | 28556 ft | 490 kts | 119° |
| 2026-05-04 19:41 | 40.71363 | -79.15050 | 28002 ft | 492 kts | 119° |
| 2026-05-04 19:41 | 40.69750 | -79.11143 | 27467 ft | 493 kts | 119° |
| 2026-05-04 19:42 | 40.68108 | -79.07174 | 26944 ft | 493 kts | 119° |
| 2026-05-04 19:42 | 40.66468 | -79.03212 | 26427 ft | 494 kts | 119° |
| 2026-05-04 19:42 | 40.64795 | -78.99178 | 25929 ft | 496 kts | 119° |
| 2026-05-04 19:42 | 40.63140 | -78.95190 | 25434 ft | 498 kts | 119° |
| 2026-05-04 19:43 | 40.61497 | -78.91239 | 25000 ft | 497 kts | 119° |
| 2026-05-04 19:43 | 40.59842 | -78.87262 | 24911 ft | 497 kts | 119° |
| 2026-05-04 19:43 | 40.58183 | -78.83279 | 24860 ft | 495 kts | 119° |
| 2026-05-04 19:43 | 40.56514 | -78.79279 | 24867 ft | 493 kts | 119° |
| 2026-05-04 19:44 | 40.55020 | -78.75269 | 24874 ft | 494 kts | 112° |
| 2026-05-04 19:44 | 40.53957 | -78.70976 | 24868 ft | 494 kts | 102° |
| 2026-05-04 19:44 | 40.53316 | -78.66547 | 24885 ft | 494 kts | 99° |
| 2026-05-04 19:44 | 40.52734 | -78.62087 | 24877 ft | 496 kts | 98° |
| 2026-05-04 19:45 | 40.52161 | -78.57647 | 24875 ft | 497 kts | 98° |
| 2026-05-04 19:45 | 40.51572 | -78.53151 | 24889 ft | 497 kts | 99° |
| 2026-05-04 19:45 | 40.50968 | -78.48665 | 24882 ft | 497 kts | 99° |
| 2026-05-04 19:45 | 40.50356 | -78.44219 | 24873 ft | 488 kts | 99° |
| 2026-05-04 19:46 | 40.49754 | -78.39928 | 24865 ft | 467 kts | 99° |
| 2026-05-04 19:46 | 40.49175 | -78.35845 | 24864 ft | 445 kts | 99° |
| 2026-05-04 19:46 | 40.48618 | -78.31933 | 24831 ft | 425 kts | 99° |
| 2026-05-04 19:46 | 40.48086 | -78.28201 | 24877 ft | 407 kts | 99° |
| 2026-05-04 19:47 | 40.47568 | -78.24567 | 24885 ft | 405 kts | 99° |
| 2026-05-04 19:47 | 40.47051 | -78.20923 | 24886 ft | 405 kts | 99° |
| 2026-05-04 19:47 | 40.46531 | -78.17276 | 24892 ft | 407 kts | 99° |
| 2026-05-04 19:47 | 40.46008 | -78.13621 | 24886 ft | 408 kts | 99° |
| 2026-05-04 19:48 | 40.45482 | -78.09954 | 24892 ft | 408 kts | 99° |
| 2026-05-04 19:48 | 40.44954 | -78.06286 | 24884 ft | 409 kts | 99° |
| 2026-05-04 19:48 | 40.44425 | -78.02615 | 24883 ft | 409 kts | 99° |
| 2026-05-04 19:48 | 40.43894 | -77.98944 | 24877 ft | 409 kts | 99° |
| 2026-05-04 19:49 | 40.43363 | -77.95278 | 24877 ft | 409 kts | 99° |
| 2026-05-04 19:49 | 40.42833 | -77.91625 | 24888 ft | 408 kts | 99° |
| 2026-05-04 19:49 | 40.42300 | -77.87964 | 24880 ft | 408 kts | 99° |
| 2026-05-04 19:49 | 40.41769 | -77.84315 | 24873 ft | 407 kts | 99° |
| 2026-05-04 19:50 | 40.41235 | -77.80667 | 24875 ft | 407 kts | 99° |
| 2026-05-04 19:50 | 40.40701 | -77.77028 | 24875 ft | 406 kts | 99° |
| 2026-05-04 19:50 | 40.40347 | -77.74615 | 24877 ft | 406 kts | 99° |
| 2026-05-04 19:50 | 40.39812 | -77.70982 | 24858 ft | 406 kts | 99° |
| 2026-05-04 19:51 | 40.39275 | -77.67345 | 24859 ft | 405 kts | 99° |
| 2026-05-04 19:51 | 40.38746 | -77.63769 | 24886 ft | 404 kts | 99° |
| 2026-05-04 19:51 | 40.38209 | -77.60144 | 24875 ft | 405 kts | 99° |
| 2026-05-04 19:51 | 40.37671 | -77.56520 | 24889 ft | 405 kts | 99° |
| 2026-05-04 19:52 | 40.37129 | -77.52873 | 24884 ft | 407 kts | 99° |
| 2026-05-04 19:52 | 40.36587 | -77.49240 | 24882 ft | 407 kts | 99° |
| 2026-05-04 19:52 | 40.36043 | -77.45600 | 24889 ft | 408 kts | 99° |
| 2026-05-04 19:52 | 40.35496 | -77.41947 | 24891 ft | 408 kts | 99° |
| 2026-05-04 19:53 | 40.34947 | -77.38291 | 24890 ft | 408 kts | 99° |
| 2026-05-04 19:53 | 40.34398 | -77.34645 | 24896 ft | 409 kts | 99° |
| 2026-05-04 19:53 | 40.33847 | -77.30990 | 24898 ft | 408 kts | 99° |
| 2026-05-04 19:53 | 40.33295 | -77.27335 | 24892 ft | 408 kts | 99° |
| 2026-05-04 19:54 | 40.32742 | -77.23686 | 24887 ft | 408 kts | 100° |
| 2026-05-04 19:54 | 40.32189 | -77.20049 | 24890 ft | 408 kts | 99° |
| 2026-05-04 19:54 | 40.31634 | -77.16395 | 24889 ft | 408 kts | 99° |
| 2026-05-04 19:54 | 40.31079 | -77.12751 | 24899 ft | 408 kts | 99° |
| 2026-05-04 19:55 | 40.30521 | -77.09095 | 24899 ft | 408 kts | 99° |
| 2026-05-04 19:55 | 40.29877 | -77.05476 | 24889 ft | 410 kts | 105° |
| 2026-05-04 19:55 | 40.28991 | -77.01928 | 24904 ft | 409 kts | 108° |
| 2026-05-04 19:55 | 40.28035 | -76.98424 | 24897 ft | 410 kts | 109° |
| 2026-05-04 19:56 | 40.27053 | -76.94913 | 24898 ft | 410 kts | 109° |
| 2026-05-04 19:56 | 40.26075 | -76.91409 | 24901 ft | 410 kts | 109° |
| 2026-05-04 19:56 | 40.25135 | -76.88012 | 24902 ft | 410 kts | 109° |
| 2026-05-04 19:56 | 40.24170 | -76.84487 | 24851 ft | 416 kts | 109° |
| 2026-05-04 19:57 | 40.23188 | -76.80876 | 24606 ft | 427 kts | 109° |
| 2026-05-04 19:57 | 40.22193 | -76.77203 | 24367 ft | 428 kts | 109° |
| 2026-05-04 19:57 | 40.21200 | -76.73537 | 24121 ft | 425 kts | 109° |
| 2026-05-04 19:57 | 40.20221 | -76.69919 | 23883 ft | 421 kts | 109° |
| 2026-05-04 19:58 | 40.19243 | -76.66312 | 23649 ft | 420 kts | 109° |
| 2026-05-04 19:58 | 40.18269 | -76.62722 | 23402 ft | 418 kts | 109° |
| 2026-05-04 19:58 | 40.17296 | -76.59144 | 23135 ft | 417 kts | 109° |
| 2026-05-04 19:58 | 40.16327 | -76.55581 | 22870 ft | 416 kts | 109° |
| 2026-05-04 19:59 | 40.15356 | -76.52021 | 22603 ft | 415 kts | 109° |
| 2026-05-04 19:59 | 40.14391 | -76.48487 | 22345 ft | 414 kts | 109° |
| 2026-05-04 19:59 | 40.13428 | -76.44964 | 22065 ft | 407 kts | 109° |
| 2026-05-04 19:59 | 40.12474 | -76.41477 | 21809 ft | 407 kts | 109° |
| 2026-05-04 20:00 | 40.11523 | -76.38009 | 21547 ft | 407 kts | 109° |
| 2026-05-04 20:00 | 40.10571 | -76.34542 | 21286 ft | 407 kts | 110° |
| 2026-05-04 20:00 | 40.09624 | -76.31096 | 21045 ft | 407 kts | 110° |
| 2026-05-04 20:00 | 40.08658 | -76.27589 | 20766 ft | 406 kts | 110° |
| 2026-05-04 20:01 | 40.07810 | -76.24512 | 20548 ft | 405 kts | 110° |
| 2026-05-04 20:01 | 40.06855 | -76.21052 | 20300 ft | 404 kts | 110° |
| 2026-05-04 20:01 | 40.05890 | -76.17558 | 20047 ft | 402 kts | 110° |
| 2026-05-04 20:01 | 40.04956 | -76.14185 | 19796 ft | 400 kts | 110° |
| 2026-05-04 20:02 | 40.04016 | -76.10790 | 19553 ft | 397 kts | 110° |
| 2026-05-04 20:02 | 40.03076 | -76.07405 | 19309 ft | 395 kts | 110° |
| 2026-05-04 20:02 | 40.02142 | -76.04043 | 19072 ft | 393 kts | 110° |
| 2026-05-04 20:02 | 40.01215 | -76.00709 | 18825 ft | 391 kts | 110° |
| 2026-05-04 20:03 | 40.00289 | -75.97386 | 18596 ft | 388 kts | 110° |
| 2026-05-04 20:03 | 39.99370 | -75.94089 | 18367 ft | 387 kts | 110° |
| 2026-05-04 20:03 | 39.98451 | -75.90799 | 18105 ft | 385 kts | 110° |
| 2026-05-04 20:03 | 39.97525 | -75.87486 | 17832 ft | 383 kts | 111° |
| 2026-05-04 20:04 | 39.96613 | -75.84230 | 17561 ft | 381 kts | 111° |
| 2026-05-04 20:04 | 39.95707 | -75.80997 | 17294 ft | 380 kts | 111° |
| 2026-05-04 20:04 | 39.94801 | -75.77768 | 17032 ft | 379 kts | 111° |
| 2026-05-04 20:04 | 39.93908 | -75.74587 | 16786 ft | 377 kts | 111° |
| 2026-05-04 20:05 | 39.92997 | -75.71352 | 16537 ft | 375 kts | 111° |
| 2026-05-04 20:05 | 39.92085 | -75.68178 | 16277 ft | 372 kts | 114° |
| 2026-05-04 20:05 | 39.91062 | -75.65143 | 16026 ft | 370 kts | 112° |
| 2026-05-04 20:05 | 39.90196 | -75.61955 | 15779 ft | 368 kts | 109° |
| 2026-05-04 20:06 | 39.89417 | -75.58769 | 15523 ft | 367 kts | 108° |
| 2026-05-04 20:06 | 39.88671 | -75.55658 | 15267 ft | 365 kts | 108° |
| 2026-05-04 20:06 | 39.87905 | -75.52502 | 15021 ft | 364 kts | 109° |
| 2026-05-04 20:06 | 39.87134 | -75.49383 | 14778 ft | 362 kts | 109° |
| 2026-05-04 20:07 | 39.86351 | -75.46268 | 14541 ft | 361 kts | 109° |
| 2026-05-04 20:07 | 39.85564 | -75.43175 | 14291 ft | 360 kts | 109° |
| 2026-05-04 20:07 | 39.84774 | -75.40090 | 13888 ft | 364 kts | 109° |
| 2026-05-04 20:07 | 39.83965 | -75.36951 | 13383 ft | 366 kts | 110° |
| 2026-05-04 20:08 | 39.83154 | -75.33812 | 12827 ft | 364 kts | 110° |
| 2026-05-04 20:08 | 39.82349 | -75.30698 | 12231 ft | 363 kts | 109° |
| 2026-05-04 20:08 | 39.81541 | -75.27583 | 11650 ft | 362 kts | 109° |
| 2026-05-04 20:08 | 39.80742 | -75.24503 | 11113 ft | 360 kts | 109° |
| 2026-05-04 20:09 | 39.79951 | -75.21456 | 10557 ft | 350 kts | 109° |
| 2026-05-04 20:09 | 39.79183 | -75.18504 | 10012 ft | 340 kts | 109° |
| 2026-05-04 20:09 | 39.78434 | -75.15627 | 9453 ft | 331 kts | 109° |
| 2026-05-04 20:09 | 39.77707 | -75.12839 | 8947 ft | 321 kts | 109° |
| 2026-05-04 20:10 | 39.77002 | -75.10136 | 8468 ft | 312 kts | 110° |
| 2026-05-04 20:10 | 39.76313 | -75.07501 | 8020 ft | 304 kts | 110° |
| 2026-05-04 20:10 | 39.75642 | -75.04935 | 7556 ft | 297 kts | 110° |
| 2026-05-04 20:10 | 39.74978 | -75.02401 | 7102 ft | 292 kts | 110° |
| 2026-05-04 20:11 | 39.74332 | -74.99937 | 6681 ft | 287 kts | 110° |
| 2026-05-04 20:11 | 39.73691 | -74.97496 | 6231 ft | 283 kts | 110° |
| 2026-05-04 20:11 | 39.73061 | -74.95095 | 5774 ft | 278 kts | 110° |
| 2026-05-04 20:11 | 39.72451 | -74.92770 | 5361 ft | 266 kts | 111° |
| 2026-05-04 20:12 | 39.71869 | -74.90555 | 4965 ft | 254 kts | 111° |
| 2026-05-04 20:12 | 39.71310 | -74.88431 | 4569 ft | 244 kts | 112° |
| 2026-05-04 20:12 | 39.70768 | -74.86375 | 4196 ft | 239 kts | 112° |
| 2026-05-04 20:12 | 39.70227 | -74.84328 | 3823 ft | 240 kts | 113° |
| 2026-05-04 20:13 | 39.69688 | -74.82290 | 3442 ft | 238 kts | 113° |
| 2026-05-04 20:13 | 39.69154 | -74.80267 | 3050 ft | 235 kts | 112° |
| 2026-05-04 20:13 | 39.68625 | -74.78271 | 2692 ft | 233 kts | 113° |
| 2026-05-04 20:13 | 39.68099 | -74.76293 | 2318 ft | 231 kts | 112° |
| 2026-05-04 20:14 | 39.67579 | -74.74325 | 1935 ft | 229 kts | 114° |
| 2026-05-04 20:14 | 39.67074 | -74.72410 | 1821 ft | 216 kts | 112° |
| 2026-05-04 20:14 | 39.66604 | -74.70629 | 1783 ft | 201 kts | 114° |
| 2026-05-04 20:14 | 39.66161 | -74.68956 | 1782 ft | 193 kts | 114° |
| 2026-05-04 20:15 | 39.65732 | -74.67347 | 1782 ft | 190 kts | 114° |
| 2026-05-04 20:15 | 39.65301 | -74.65730 | 1792 ft | 190 kts | 115° |
| 2026-05-04 20:15 | 39.64871 | -74.64117 | 1792 ft | 189 kts | 113° |
| 2026-05-04 20:15 | 39.64413 | -74.62522 | 1792 ft | 186 kts | 117° |
| 2026-05-04 20:16 | 39.63914 | -74.61005 | 1805 ft | 180 kts | 118° |
| 2026-05-04 20:16 | 39.63419 | -74.59516 | 1811 ft | 181 kts | 118° |
| 2026-05-04 20:16 | 39.62921 | -74.58013 | 1809 ft | 182 kts | 118° |
| 2026-05-04 20:16 | 39.62419 | -74.56492 | 1810 ft | 184 kts | 119° |
| 2026-05-04 20:17 | 39.61918 | -74.54973 | 1809 ft | 184 kts | 118° |
| 2026-05-04 20:17 | 39.61415 | -74.53446 | 1800 ft | 184 kts | 119° |
| 2026-05-04 20:17 | 39.60682 | -74.52192 | 1789 ft | 165 kts | 156° |
| 2026-05-04 20:17 | 39.59632 | -74.51879 | 1762 ft | 151 kts | 188° |
| 2026-05-04 20:18 | 39.58611 | -74.52138 | 1766 ft | 149 kts | 195° |
| 2026-05-04 20:18 | 39.57627 | -74.52421 | 1684 ft | 140 kts | 197° |
| 2026-05-04 20:18 | 39.56701 | -74.52690 | 1670 ft | 136 kts | 198° |
| 2026-05-04 20:18 | 39.55757 | -74.52969 | 1688 ft | 137 kts | 197° |
| 2026-05-04 20:19 | 39.54851 | -74.53236 | 1591 ft | 130 kts | 197° |
| 2026-05-04 20:19 | 39.53985 | -74.53489 | 1500 ft | 122 kts | 195° |
| 2026-05-04 20:19 | 39.53117 | -74.53671 | 1421 ft | 125 kts | 197° |
| 2026-05-04 20:19 | 39.52298 | -74.53997 | 1319 ft | 124 kts | 202° |
| 2026-05-04 20:20 | 39.51454 | -74.54271 | 1155 ft | 125 kts | 194° |
| 2026-05-04 20:20 | 39.50608 | -74.54596 | 1011 ft | 123 kts | 207° |
| 2026-05-04 20:20 | 39.49827 | -74.55159 | 929 ft | 134 kts | 211° |
| 2026-05-04 20:20 | 39.49013 | -74.55771 | 697 ft | 134 kts | 208° |
| 2026-05-04 20:21 | 39.48208 | -74.56327 | 528 ft | 128 kts | 205° |
| 2026-05-04 20:21 | 39.47436 | -74.56842 | 284 ft | 118 kts | 205° |
| 2026-05-04 20:21 | 39.46048 | -74.57775 | 74 ft | 96 kts | 209° |
| 2026-05-04 20:22 | 39.45749 | -74.57981 | 76 ft | 27 kts | 207° |
| 2026-05-04 20:22 | 39.45560 | -74.58111 | 69 ft | 34 kts | 208° |
| 2026-05-04 20:22 | 39.45364 | -74.58248 | 65 ft | 23 kts | 206° |
| 2026-05-04 20:22 | 39.45244 | -74.58196 | 74 ft | 19 kts | 127° |
| 2026-05-04 20:23 | 39.45249 | -74.58139 | 66 ft | 0 kts | 47° |
| 2026-05-04 20:24 | 39.45249 | -74.58135 | 69 ft | 1 kts | 80° |
| 2026-05-04 20:24 | 39.45212 | -74.58136 | 70 ft | 17 kts | 168° |
| 2026-05-04 20:24 | 39.45151 | -74.58076 | 68 ft | 8 kts | 136° |
| 2026-05-04 20:24 | 39.45106 | -74.58019 | 69 ft | 10 kts | 133° |
| 2026-05-04 20:25 | 39.45107 | -74.57909 | 67 ft | 17 kts | 59° |
| 2026-05-04 20:25 | 39.45177 | -74.57778 | 70 ft | 17 kts | 60° |
| 2026-05-04 20:25 | 39.45151 | -74.57654 | 69 ft | 15 kts | 106° |
| 2026-05-04 20:25 | 39.45115 | -74.57533 | 71 ft | 14 kts | 115° |
| 2026-05-04 20:26 | 39.45141 | -74.57459 | 73 ft | 8 kts | 49° |
| 2026-05-04 20:26 | 39.45127 | -74.57404 | 73 ft | 8 kts | 157° |
| 2026-05-04 20:26 | 39.45112 | -74.57397 | 72 ft | 0 kts | 157° |